Aérodrome :
LOGIN :

S'inscrire | Disclaimer

   EN    FR    IT 

 










Légende :    VFR   VFR Marginal   IFR   IFR Intensif   IFR Très Intensif
Visi : 
Plafond : 
>= 8 km
>= 3000ft
5 à 8 km
1000 à 3000 ft
1500m à 5 km
500 à 1000 ft
800 à 1500m
200 à 500 ft
< 800m
< 200 ft
Symboles :   Orages  Brouillard  Fortes neiges  Fortes précipitations  Vent > 20 kt
SIGMETs :   Divers  Orages  Givrage  Turbulence  Onde Orograph.  Cendres Volcan.






- Altitude de l'aérodrome : 1521 ft
- Code IATA : NCY


LFLP - Annecy

DERNIER METAR :
  • 032000Z AUTO VRB01KT 9999 -RA FEW025/// SCT054/// OVC088/// ///TCU 15/14 Q1006

METARs EXPIRÉS :
  • 031930Z AUTO VRB02KT 9999 -RA SCT056/// BKN068/// OVC080/// ///CB 15/14 Q1006
  • 031900Z AUTO VRB02KT 9999 -RA FEW056/// BKN072/// OVC086/// ///CB 16/14 Q1005 TEMPO VRB20G35KT 4000 SHRA
  • 031830Z AUTO 33005KT 280V010 9999 -RA VCTS FEW045/// SCT052/// OVC092/// ///CB 17/15 Q1005 TEMPO VRB20G35KT 4000 SHRA
  • 031800Z AUTO 12005KT 9999 -RA FEW060/// OVC090/// ///CB 16/15 Q1005 TEMPO VRB20G35KT 2000 TSRA
  • 031730Z AUTO 23009KT 200V270 7000 TSRA FEW060/// OVC086/// ///CB 17/14 Q1005 TEMPO VRB20G35KT 2000 TSRA

TAF AMD TAF LFLP
Valide du 03 à 16h jusqu'au 04 à 15h UTC


031623Z 0316/0415 22008KT 9999 FEW050 BKN090
TEMPO 0316/0410 4000 SHRA BKN050TCU
PROB40
TEMPO 0316/0320 VRB20G35KT 2000 TSRA BKN045CB
PROB40
TEMPO 0402/0409 2000 BKN010 FEW040CB



MET'MAP, la Météo Aéronautique d'un coup d'oeil ! - Copyright ORBIFLY Décembre 2007 - Disclaimer

ORBIFLY MET'MAP TEAM :

Programmation & Développement : Alexandra Zaïnal
Sur une idée originale de : Baudouin d'Aumeries
Assistance à la programmation : Marc-Olivier Méhu
Soutien technique & logistique : Manuel Goepfert

Contact : metmap@orbifly.com




SOURCES & CREDITS :

   NOAA